createdAt,value
2022-07-31T00:01:20.163Z,1.50
2022-07-31T00:03:46.727Z,1.67
2022-07-31T00:06:13.243Z,1.30
2022-07-31T00:08:39.709Z,1.30
2022-07-31T00:11:06.187Z,1.27
2022-07-31T00:13:57.593Z,1.30
2022-07-31T00:18:45.570Z,1.55
2022-07-31T00:21:14.001Z,1.60
2022-07-31T00:23:41.146Z,1.50
2022-07-31T00:26:07.915Z,1.42
2022-07-31T00:28:34.573Z,1.70
2022-07-31T00:31:01.198Z,1.40
2022-07-31T00:33:27.667Z,1.63
2022-07-31T00:35:54.099Z,1.40
2022-07-31T00:38:28.051Z,1.70
2022-07-31T00:40:54.692Z,1.77
2022-07-31T00:43:21.827Z,1.70
2022-07-31T00:45:53.216Z,2.40
2022-07-31T00:48:25.836Z,2.83
2022-07-31T00:50:54.129Z,2.22
2022-07-31T00:53:20.600Z,2.38
2022-07-31T00:55:51.862Z,2.05
2022-07-31T00:58:19.953Z,2.30
2022-07-31T01:00:46.994Z,2.15
2022-07-31T01:03:14.353Z,1.70
2022-07-31T01:05:41.671Z,1.67
2022-07-31T01:08:08.105Z,1.40
2022-07-31T01:10:55.069Z,1.90
2022-07-31T01:13:41.101Z,1.80
2022-07-31T01:16:11.334Z,1.33
2022-07-31T01:18:39.410Z,1.50
2022-07-31T01:21:08.814Z,1.45
2022-07-31T01:24:03.666Z,1.40
2022-07-31T01:26:39.004Z,1.60
2022-07-31T01:29:34.715Z,1.58
2022-07-31T01:32:13.435Z,1.67
2022-07-31T01:34:48.394Z,1.50
2022-07-31T01:37:20.714Z,1.73
2022-07-31T01:39:52.935Z,1.77
2022-07-31T01:42:20.903Z,1.52
2022-07-31T01:44:53.201Z,2.05
2022-07-31T01:47:21.541Z,2.00
2022-07-31T01:49:50.582Z,1.95
2022-07-31T01:52:19.286Z,1.92
2022-07-31T01:54:47.416Z,1.90
2022-07-31T01:57:18.620Z,2.00
2022-07-31T01:59:47.847Z,2.47
2022-07-31T02:02:16.155Z,1.80
2022-07-31T02:04:43.974Z,2.08
2022-07-31T02:07:11.099Z,1.90
2022-07-31T02:09:58.057Z,2.17
2022-07-31T02:12:33.441Z,2.10
2022-07-31T02:15:03.455Z,2.10
2022-07-31T02:17:30.275Z,1.80
2022-07-31T02:20:00.193Z,1.60
2022-07-31T02:22:29.417Z,1.98
2022-07-31T02:24:56.109Z,2.25
2022-07-31T02:27:55.579Z,1.90
2022-07-31T02:30:11.421Z,2.05
2022-07-31T02:32:38.573Z,2.17
2022-07-31T02:35:07.194Z,1.90
2022-07-31T02:37:36.293Z,2.13
2022-07-31T02:40:04.796Z,2.20
2022-07-31T02:42:31.571Z,2.42
2022-07-31T02:44:59.378Z,2.20
2022-07-31T02:47:26.049Z,2.33
2022-07-31T02:49:54.626Z,2.10
2022-07-31T02:52:21.510Z,2.30
2022-07-31T02:54:48.393Z,2.15
2022-07-31T02:57:15.021Z,2.42
2022-07-31T02:59:41.537Z,2.25
2022-07-31T03:02:07.962Z,2.30
2022-07-31T03:04:34.734Z,2.65
2022-07-31T03:07:01.411Z,2.22
2022-07-31T03:09:28.450Z,2.50
2022-07-31T03:11:54.944Z,2.40
2022-07-31T03:14:23.093Z,2.53
2022-07-31T03:16:51.759Z,2.55
2022-07-31T03:19:21.018Z,2.75
2022-07-31T03:21:49.868Z,2.53
2022-07-31T03:24:17.848Z,2.55
2022-07-31T03:26:44.296Z,3.00
2022-07-31T03:29:39.065Z,2.47
2022-07-31T03:36:51.616Z,2.42
2022-07-31T03:39:18.109Z,2.70
2022-07-31T03:41:45.490Z,2.80
2022-07-31T03:44:12.571Z,3.00
2022-07-31T03:46:39.413Z,3.20
2022-07-31T03:49:07.793Z,2.88
2022-07-31T03:51:34.585Z,3.05
2022-07-31T03:54:01.337Z,3.10
2022-07-31T03:56:28.866Z,3.05
2022-07-31T03:58:55.516Z,2.95
2022-07-31T04:01:23.064Z,3.20
2022-07-31T04:03:58.004Z,3.38
2022-07-31T04:06:24.442Z,2.90
2022-07-31T04:08:50.914Z,3.60
2022-07-31T04:11:17.580Z,3.10
2022-07-31T04:13:44.039Z,3.05
2022-07-31T04:16:10.503Z,3.08
2022-07-31T04:18:36.974Z,3.63
2022-07-31T04:21:03.519Z,3.25
2022-07-31T04:23:32.241Z,3.22
2022-07-31T04:25:59.344Z,3.38
2022-07-31T04:28:26.408Z,3.70
2022-07-31T04:30:53.009Z,2.92
2022-07-31T04:33:19.595Z,3.15
2022-07-31T04:35:46.128Z,3.25
2022-07-31T04:38:12.635Z,3.45
2022-07-31T04:40:39.369Z,3.30
2022-07-31T04:43:05.957Z,3.33
2022-07-31T04:45:32.481Z,3.20
2022-07-31T04:47:58.947Z,3.40
2022-07-31T04:50:25.455Z,3.42
2022-07-31T04:52:51.966Z,3.33
2022-07-31T04:55:18.492Z,3.40
2022-07-31T04:57:44.927Z,2.97
2022-07-31T05:00:11.844Z,3.50
2022-07-31T05:02:38.292Z,3.22
2022-07-31T05:05:05.109Z,2.97
2022-07-31T05:07:31.657Z,3.03
2022-07-31T05:09:58.763Z,2.70
2022-07-31T05:12:25.237Z,2.97
2022-07-31T05:14:51.890Z,2.83
2022-07-31T05:17:18.351Z,3.15
2022-07-31T05:19:44.791Z,2.75
2022-07-31T05:22:11.624Z,3.00
2022-07-31T05:24:38.120Z,2.63
2022-07-31T05:27:05.161Z,2.80
2022-07-31T05:29:33.221Z,3.13
2022-07-31T05:32:01.102Z,2.53
2022-07-31T05:34:30.985Z,2.83
2022-07-31T05:37:01.220Z,2.67
2022-07-31T05:39:28.642Z,2.55
2022-07-31T05:41:55.279Z,2.63
2022-07-31T05:44:21.830Z,2.95
2022-07-31T05:46:48.330Z,3.10
2022-07-31T05:49:14.842Z,2.15
2022-07-31T05:51:45.501Z,2.20
2022-07-31T05:54:11.939Z,2.63
2022-07-31T05:56:38.392Z,2.53
2022-07-31T05:59:04.880Z,2.42
2022-07-31T06:01:31.355Z,2.30
2022-07-31T06:03:57.861Z,2.28
2022-07-31T06:06:24.728Z,2.65
2022-07-31T06:08:51.276Z,2.10
2022-07-31T06:11:17.748Z,2.70
2022-07-31T06:13:44.267Z,2.10
2022-07-31T06:16:16.721Z,2.13
2022-07-31T06:18:43.452Z,2.22
2022-07-31T06:23:36.848Z,2.45
2022-07-31T06:26:04.219Z,2.10
2022-07-31T06:28:47.954Z,2.00
2022-07-31T06:31:18.170Z,2.20
2022-07-31T06:33:48.195Z,1.95
2022-07-31T06:36:14.748Z,1.95
2022-07-31T06:38:41.283Z,2.22
2022-07-31T06:41:07.728Z,2.00
2022-07-31T06:43:34.183Z,2.25
2022-07-31T06:46:00.648Z,2.47
2022-07-31T06:48:27.132Z,1.92
2022-07-31T06:51:14.615Z,1.95
2022-07-31T06:53:41.467Z,1.98
2022-07-31T06:56:07.896Z,2.13
2022-07-31T06:58:34.364Z,1.90
2022-07-31T07:01:00.819Z,1.83
2022-07-31T07:03:27.267Z,2.00
2022-07-31T07:05:53.781Z,2.25
2022-07-31T07:08:20.362Z,2.10
2022-07-31T07:10:46.780Z,2.15
2022-07-31T07:13:13.218Z,2.08
2022-07-31T07:15:39.665Z,2.33
2022-07-31T07:18:06.902Z,2.00
2022-07-31T07:20:33.848Z,1.90
2022-07-31T07:23:00.314Z,1.92
2022-07-31T07:25:26.788Z,1.90
2022-07-31T07:27:53.853Z,2.50
2022-07-31T07:30:20.432Z,2.08
2022-07-31T07:32:46.863Z,2.30
2022-07-31T07:35:13.274Z,2.25
2022-07-31T07:37:40.947Z,2.35
2022-07-31T07:40:09.034Z,2.08
2022-07-31T07:42:35.536Z,2.13
2022-07-31T07:45:06.584Z,2.30
2022-07-31T07:47:53.765Z,1.92
2022-07-31T07:50:22.788Z,2.00
2022-07-31T07:52:53.916Z,2.28
2022-07-31T07:55:20.475Z,2.13
2022-07-31T07:57:46.895Z,1.90
2022-07-31T08:00:14.127Z,2.15
2022-07-31T08:02:42.583Z,2.08
2022-07-31T08:05:10.637Z,2.20
2022-07-31T08:07:42.134Z,2.30
2022-07-31T08:10:09.915Z,2.40
2022-07-31T08:12:37.246Z,2.10
2022-07-31T08:15:04.776Z,2.17
2022-07-31T08:17:31.282Z,2.53
2022-07-31T08:19:57.822Z,2.33
2022-07-31T08:22:24.269Z,2.42
2022-07-31T08:24:50.666Z,2.60
2022-07-31T08:27:39.950Z,2.38
2022-07-31T08:30:08.100Z,2.20
2022-07-31T08:32:34.781Z,2.45
2022-07-31T08:35:01.340Z,2.67
2022-07-31T08:38:01.556Z,2.65
2022-07-31T08:40:17.065Z,2.22
2022-07-31T08:42:45.581Z,2.22
2022-07-31T08:45:12.566Z,2.67
2022-07-31T08:47:42.003Z,2.50
2022-07-31T08:50:12.987Z,2.70
2022-07-31T08:52:42.680Z,2.33
2022-07-31T08:55:10.482Z,2.75
2022-07-31T08:57:51.806Z,2.70
2022-07-31T09:00:19.791Z,2.17
2022-07-31T09:02:46.318Z,1.95
2022-07-31T09:05:13.263Z,2.33
2022-07-31T09:07:40.310Z,2.25
2022-07-31T09:10:26.837Z,2.67
2022-07-31T09:12:54.374Z,2.45
2022-07-31T09:15:25.475Z,2.28
2022-07-31T09:17:54.039Z,2.40
2022-07-31T09:20:29.329Z,2.63
2022-07-31T09:23:14.301Z,2.88
2022-07-31T09:26:04.971Z,3.03
2022-07-31T09:28:39.226Z,2.45
2022-07-31T09:31:07.940Z,2.33
2022-07-31T09:33:36.593Z,2.63
2022-07-31T09:36:03.305Z,2.28
2022-07-31T09:38:48.236Z,2.38
2022-07-31T09:41:56.716Z,2.85
2022-07-31T09:44:10.136Z,2.78
2022-07-31T09:46:48.383Z,3.30
2022-07-31T09:49:15.983Z,2.88
2022-07-31T09:51:45.487Z,2.75
2022-07-31T09:54:22.553Z,3.58
2022-07-31T09:56:50.289Z,3.08
2022-07-31T09:59:17.459Z,2.95
2022-07-31T10:01:48.590Z,3.17
2022-07-31T10:04:17.642Z,3.33
2022-07-31T10:06:48.793Z,2.92
2022-07-31T10:09:17.707Z,3.10
2022-07-31T10:11:45.464Z,3.22
2022-07-31T10:14:18.642Z,2.80
2022-07-31T10:16:45.429Z,3.08
2022-07-31T10:19:13.892Z,2.90
2022-07-31T10:21:43.821Z,3.80
2022-07-31T10:24:11.524Z,3.80
2022-07-31T10:29:26.719Z,3.72
2022-07-31T10:31:54.048Z,4.03
2022-07-31T10:34:21.727Z,3.10
2022-07-31T10:36:53.691Z,3.83
2022-07-31T10:39:44.095Z,3.80
2022-07-31T10:42:26.823Z,3.83
2022-07-31T10:45:14.234Z,3.38
2022-07-31T10:47:48.650Z,3.35
2022-07-31T10:50:21.368Z,4.00
2022-07-31T10:52:48.026Z,4.32
2022-07-31T10:55:22.209Z,4.00
2022-07-31T10:57:57.191Z,3.88
2022-07-31T11:00:29.471Z,4.55
2022-07-31T11:02:56.530Z,3.15
2022-07-31T11:05:23.632Z,2.72
2022-07-31T11:08:01.442Z,3.40
2022-07-31T11:10:27.942Z,2.92
2022-07-31T11:13:09.129Z,2.92
2022-07-31T11:15:37.490Z,2.95
2022-07-31T11:18:24.888Z,2.80
2022-07-31T11:21:17.850Z,2.80
2022-07-31T11:24:02.786Z,2.97
2022-07-31T11:26:40.928Z,3.33
2022-07-31T11:30:01.551Z,2.85
2022-07-31T11:32:00.306Z,3.20
2022-07-31T11:34:26.731Z,3.45
2022-07-31T11:36:53.261Z,3.55
2022-07-31T11:39:23.740Z,2.50
2022-07-31T11:42:03.786Z,3.17
2022-07-31T11:44:30.299Z,3.13
2022-07-31T11:46:56.754Z,3.55
2022-07-31T11:49:44.144Z,3.20
2022-07-31T11:52:30.428Z,3.35
2022-07-31T11:55:13.387Z,3.08
2022-07-31T11:57:50.839Z,3.65
2022-07-31T12:00:26.613Z,3.35
2022-07-31T12:02:56.054Z,3.40
2022-07-31T12:05:36.094Z,3.08
2022-07-31T12:08:06.344Z,3.25
2022-07-31T12:10:32.991Z,2.65
2022-07-31T12:12:59.499Z,2.80
2022-07-31T12:15:26.044Z,2.53
2022-07-31T12:18:02.311Z,2.00
2022-07-31T12:20:35.919Z,2.63
2022-07-31T12:23:05.340Z,2.60
2022-07-31T12:25:45.862Z,2.67
2022-07-31T12:28:16.301Z,2.50
2022-07-31T12:30:43.937Z,2.47
2022-07-31T12:33:12.822Z,2.17
2022-07-31T12:35:56.439Z,1.70
2022-07-31T12:38:45.127Z,1.52
2022-07-31T12:41:13.497Z,2.03
2022-07-31T12:43:50.001Z,1.77
2022-07-31T12:46:17.662Z,1.30
2022-07-31T12:48:47.095Z,1.48
2022-07-31T12:51:13.628Z,1.55
2022-07-31T12:53:40.087Z,1.35
2022-07-31T12:56:11.702Z,1.70
2022-07-31T12:58:38.209Z,2.10
2022-07-31T13:01:04.619Z,2.30
2022-07-31T13:03:45.205Z,2.10
2022-07-31T13:06:12.902Z,2.13
2022-07-31T13:08:39.356Z,1.80
2022-07-31T13:11:05.816Z,2.00
2022-07-31T13:13:32.258Z,1.98
2022-07-31T13:15:58.667Z,1.80
2022-07-31T13:18:25.162Z,2.13
2022-07-31T13:20:51.568Z,2.58
2022-07-31T13:23:18.030Z,2.25
2022-07-31T13:25:44.566Z,2.88
2022-07-31T13:28:11.058Z,2.38
2022-07-31T13:30:37.514Z,2.22
2022-07-31T13:33:04.007Z,2.38
2022-07-31T13:35:31.715Z,2.60
2022-07-31T13:37:58.379Z,2.83
2022-07-31T13:40:44.050Z,2.15
2022-07-31T13:43:11.117Z,2.53
2022-07-31T13:45:37.870Z,2.30
2022-07-31T13:48:08.896Z,2.72
2022-07-31T13:50:37.834Z,3.03
2022-07-31T13:53:04.959Z,2.72
2022-07-31T13:55:31.580Z,2.78
2022-07-31T13:58:00.915Z,2.50
2022-07-31T14:00:27.988Z,2.92
2022-07-31T14:02:54.427Z,2.58
2022-07-31T14:05:20.836Z,2.83
2022-07-31T14:07:51.989Z,2.55
2022-07-31T14:10:20.939Z,2.55
2022-07-31T14:12:48.149Z,2.80
2022-07-31T14:15:14.703Z,2.83
2022-07-31T14:17:41.152Z,2.30
2022-07-31T14:20:08.166Z,2.22
2022-07-31T14:22:34.670Z,2.28
2022-07-31T14:25:01.315Z,2.17
2022-07-31T14:27:27.817Z,3.08
2022-07-31T14:29:54.278Z,2.58
2022-07-31T14:32:22.102Z,2.65
2022-07-31T14:34:50.145Z,2.50
2022-07-31T14:37:17.108Z,2.60
2022-07-31T14:39:44.052Z,2.50
2022-07-31T14:42:11.665Z,2.63
2022-07-31T14:44:41.628Z,2.67
2022-07-31T14:47:09.453Z,2.55
2022-07-31T14:50:08.756Z,2.47
2022-07-31T14:52:22.431Z,2.80
2022-07-31T14:54:49.001Z,2.70
2022-07-31T14:57:20.153Z,2.40
2022-07-31T14:59:49.966Z,2.13
2022-07-31T15:02:21.427Z,2.33
2022-07-31T15:04:48.515Z,1.83
2022-07-31T15:07:34.140Z,2.20
2022-07-31T15:10:05.285Z,1.60
2022-07-31T15:12:32.328Z,1.92
2022-07-31T15:14:58.875Z,2.10
2022-07-31T15:17:25.546Z,1.70
2022-07-31T15:19:52.379Z,1.92
2022-07-31T15:22:19.299Z,1.92
2022-07-31T15:24:49.163Z,2.05
2022-07-31T15:27:22.055Z,1.80
2022-07-31T15:30:00.319Z,1.95
2022-07-31T15:32:36.042Z,2.08
2022-07-31T15:35:03.561Z,1.73
2022-07-31T15:37:30.321Z,1.70
2022-07-31T15:40:02.145Z,1.90
2022-07-31T15:42:30.113Z,1.90
2022-07-31T15:44:56.572Z,1.83
2022-07-31T15:47:22.983Z,1.73
2022-07-31T15:49:49.537Z,1.73
2022-07-31T15:52:19.417Z,1.80
2022-07-31T15:54:46.659Z,1.70
2022-07-31T15:57:13.583Z,1.80
2022-07-31T15:59:41.028Z,1.90
2022-07-31T16:02:07.557Z,1.70
2022-07-31T16:04:34.922Z,1.88
2022-07-31T16:08:32.163Z,1.67
2022-07-31T16:10:04.051Z,1.63
2022-07-31T16:12:35.341Z,1.60
2022-07-31T16:15:02.541Z,1.70
2022-07-31T16:17:37.883Z,1.73
2022-07-31T16:20:10.124Z,1.42
2022-07-31T16:22:38.528Z,1.70
2022-07-31T16:25:06.849Z,1.63
2022-07-31T16:27:33.543Z,1.63
2022-07-31T16:30:01.882Z,1.77
2022-07-31T16:32:29.114Z,1.60
2022-07-31T16:34:59.990Z,1.92
2022-07-31T16:37:51.327Z,1.88
2022-07-31T16:40:29.383Z,1.90
2022-07-31T16:43:48.735Z,1.50
2022-07-31T16:45:53.173Z,1.70
2022-07-31T16:48:19.791Z,2.10
2022-07-31T16:50:48.122Z,1.95
2022-07-31T16:54:09.862Z,2.00
2022-07-31T16:56:02.166Z,2.10
2022-07-31T16:58:29.077Z,1.80
2022-07-31T17:00:55.592Z,2.10
2022-07-31T17:04:01.843Z,2.05
2022-07-31T17:06:10.371Z,2.28
2022-07-31T17:08:38.202Z,2.53
2022-07-31T17:11:05.170Z,2.70
2022-07-31T17:13:31.691Z,2.60
2022-07-31T17:15:58.181Z,2.88
2022-07-31T17:18:25.456Z,2.92
2022-07-31T17:20:56.262Z,2.63
2022-07-31T17:23:43.053Z,2.75
2022-07-31T17:26:21.509Z,2.70
2022-07-31T17:28:49.807Z,3.08
2022-07-31T17:31:16.814Z,2.70
2022-07-31T17:33:59.262Z,2.97
2022-07-31T17:36:28.458Z,2.63
2022-07-31T17:38:57.595Z,2.90
2022-07-31T17:41:25.910Z,2.92
2022-07-31T17:43:54.237Z,3.00
2022-07-31T17:46:28.245Z,3.15
2022-07-31T17:49:01.324Z,3.10
2022-07-31T17:51:27.976Z,3.45
2022-07-31T17:53:59.664Z,3.30
2022-07-31T17:56:26.636Z,3.53
2022-07-31T17:58:53.203Z,3.58
2022-07-31T18:01:19.691Z,3.50
2022-07-31T18:03:46.196Z,3.78
2022-07-31T18:06:12.639Z,3.53
2022-07-31T18:08:39.147Z,3.88
2022-07-31T18:11:06.528Z,3.33
2022-07-31T18:13:47.721Z,3.00
2022-07-31T18:16:15.806Z,3.13
2022-07-31T18:18:42.256Z,3.08
2022-07-31T18:21:08.838Z,2.40
2022-07-31T18:23:35.424Z,2.15
2022-07-31T18:26:03.395Z,2.40
2022-07-31T18:28:31.547Z,1.98
2022-07-31T18:31:01.600Z,2.10
2022-07-31T18:33:28.062Z,2.10
2022-07-31T18:35:54.589Z,2.10
2022-07-31T18:38:21.053Z,1.80
2022-07-31T18:40:47.700Z,2.10
2022-07-31T18:43:14.175Z,2.22
2022-07-31T18:45:41.511Z,2.03
2022-07-31T18:48:08.355Z,2.08
2022-07-31T18:51:01.665Z,1.92
2022-07-31T18:53:21.564Z,2.40
2022-07-31T18:55:48.114Z,2.05
2022-07-31T18:58:14.632Z,2.38
2022-07-31T19:00:41.380Z,2.30
2022-07-31T19:03:08.119Z,2.25
2022-07-31T19:05:35.007Z,2.13
2022-07-31T19:08:01.716Z,2.25
2022-07-31T19:10:31.120Z,2.83
2022-07-31T19:12:58.551Z,2.20
2022-07-31T19:15:25.098Z,2.17
2022-07-31T19:17:51.524Z,2.05
2022-07-31T19:20:56.439Z,1.80
2022-07-31T19:23:12.548Z,1.85
2022-07-31T19:26:02.182Z,1.92
2022-07-31T19:28:27.303Z,1.80
2022-07-31T19:30:54.287Z,2.00
2022-07-31T19:33:20.871Z,2.08
2022-07-31T19:35:56.804Z,2.13
2022-07-31T19:38:27.440Z,2.20
2022-07-31T19:40:54.467Z,2.45
2022-07-31T19:43:20.964Z,2.25
2022-07-31T19:45:58.701Z,2.13
2022-07-31T19:48:35.182Z,2.15
2022-07-31T19:51:01.848Z,2.22
2022-07-31T19:53:28.358Z,2.05
2022-07-31T19:55:54.973Z,2.60
2022-07-31T19:58:21.856Z,2.42
2022-07-31T20:00:48.819Z,2.50
2022-07-31T20:03:15.298Z,2.53
2022-07-31T20:05:41.943Z,3.10
2022-07-31T20:08:08.417Z,2.75
2022-07-31T20:10:34.829Z,2.47
2022-07-31T20:13:01.283Z,2.50
2022-07-31T20:15:27.734Z,2.55
2022-07-31T20:21:07.362Z,2.25
2022-07-31T20:23:38.212Z,2.63
2022-07-31T20:26:06.333Z,3.15
2022-07-31T20:28:32.811Z,3.05
2022-07-31T20:30:59.258Z,2.80
2022-07-31T20:33:25.753Z,2.83
2022-07-31T20:35:52.505Z,3.00
2022-07-31T20:38:23.245Z,3.42
2022-07-31T20:40:54.398Z,3.17
2022-07-31T20:43:28.097Z,3.05
2022-07-31T20:45:59.090Z,3.80
2022-07-31T20:48:31.691Z,3.58
2022-07-31T20:51:03.253Z,3.88
2022-07-31T20:53:30.430Z,3.70
2022-07-31T20:55:58.183Z,3.90
2022-07-31T20:58:26.595Z,3.50
2022-07-31T21:00:54.711Z,3.70
2022-07-31T21:03:21.708Z,3.30
2022-07-31T21:05:48.278Z,3.60
2022-07-31T21:08:15.687Z,3.35
2022-07-31T21:10:42.305Z,3.80
2022-07-31T21:13:09.335Z,3.90
2022-07-31T21:15:43.977Z,3.90
2022-07-31T21:18:13.521Z,3.60
2022-07-31T21:20:49.903Z,3.42
2022-07-31T21:23:21.730Z,3.63
2022-07-31T21:25:48.618Z,3.38
2022-07-31T21:28:15.347Z,3.83
2022-07-31T21:30:41.952Z,3.53
2022-07-31T21:33:09.795Z,3.75
2022-07-31T21:35:39.828Z,3.78
2022-07-31T21:38:11.702Z,3.65
2022-07-31T21:40:40.223Z,3.60
2022-07-31T21:43:07.729Z,3.90
2022-07-31T21:45:50.809Z,3.30
2022-07-31T21:48:23.392Z,3.70
2022-07-31T21:50:50.116Z,3.67
2022-07-31T21:53:16.564Z,3.35
2022-07-31T21:55:44.084Z,3.75
2022-07-31T21:58:11.101Z,3.58
2022-07-31T22:00:37.820Z,3.55
2022-07-31T22:03:05.049Z,3.72
2022-07-31T22:05:50.938Z,3.90
2022-07-31T22:08:18.116Z,3.67
2022-07-31T22:10:44.960Z,4.05
2022-07-31T22:13:11.821Z,3.55
2022-07-31T22:15:55.387Z,3.85
2022-07-31T22:18:29.779Z,3.83
2022-07-31T22:20:57.201Z,4.00
2022-07-31T22:23:23.870Z,3.50
2022-07-31T22:25:50.667Z,4.03
2022-07-31T22:28:19.479Z,3.25
2022-07-31T22:30:46.398Z,3.00
2022-07-31T22:33:15.916Z,3.00
2022-07-31T22:35:43.054Z,3.20
2022-07-31T22:38:11.594Z,2.85
2022-07-31T22:40:38.455Z,3.33
2022-07-31T22:43:23.344Z,3.13
2022-07-31T22:45:53.002Z,3.60
2022-07-31T22:48:21.659Z,3.78
2022-07-31T22:50:49.013Z,3.22
2022-07-31T22:53:16.044Z,3.83
2022-07-31T22:55:42.677Z,3.97
2022-07-31T22:58:11.306Z,3.50
2022-07-31T23:00:38.096Z,3.35
2022-07-31T23:03:04.624Z,3.83
2022-07-31T23:06:02.960Z,3.70
2022-07-31T23:13:10.179Z,3.35
2022-07-31T23:15:36.664Z,3.75
2022-07-31T23:18:03.172Z,3.95
2022-07-31T23:20:29.651Z,4.03
2022-07-31T23:22:56.114Z,4.07
2022-07-31T23:25:23.733Z,3.97
2022-07-31T23:27:50.204Z,5.05
2022-07-31T23:30:16.719Z,4.97
2022-07-31T23:32:43.179Z,4.75
2022-07-31T23:35:09.931Z,4.95
2022-07-31T23:37:36.451Z,4.80
2022-07-31T23:40:03.298Z,4.43
2022-07-31T23:42:38.816Z,5.07
2022-07-31T23:45:11.352Z,4.63
2022-07-31T23:47:45.012Z,5.65
2022-07-31T23:50:13.805Z,4.72
2022-07-31T23:52:40.651Z,5.55
2022-07-31T23:55:07.282Z,5.05
2022-07-31T23:57:34.448Z,5.05
